sensor_id;sensor_type;location;lat;lon;timestamp;temperature;humidity
43808;DHT22;29438;50.664;10.098;2023-03-01T00:01:17;-3272.20;88.50
43808;DHT22;29438;50.664;10.098;2023-03-01T00:03:43;-3272.30;88.30
43808;DHT22;29438;50.664;10.098;2023-03-01T00:06:08;-3272.30;88.20
43808;DHT22;29438;50.664;10.098;2023-03-01T00:08:34;-3272.20;88.10
43808;DHT22;29438;50.664;10.098;2023-03-01T00:11:08;-3272.20;88.00
43808;DHT22;29438;50.664;10.098;2023-03-01T00:13:35;-3272.10;88.10
43808;DHT22;29438;50.664;10.098;2023-03-01T00:16:03;-3272.00;88.00
43808;DHT22;29438;50.664;10.098;2023-03-01T00:18:28;-3271.90;88.00
43808;DHT22;29438;50.664;10.098;2023-03-01T00:20:55;-3271.80;88.10
43808;DHT22;29438;50.664;10.098;2023-03-01T00:23:21;-3271.80;88.30
43808;DHT22;29438;50.664;10.098;2023-03-01T00:25:47;-3271.80;88.50
43808;DHT22;29438;50.664;10.098;2023-03-01T00:28:13;-3271.80;88.50
43808;DHT22;29438;50.664;10.098;2023-03-01T00:30:39;-3271.80;88.40
43808;DHT22;29438;50.664;10.098;2023-03-01T00:33:04;-3271.70;88.60
43808;DHT22;29438;50.664;10.098;2023-03-01T00:35:32;-3271.70;88.60
43808;DHT22;29438;50.664;10.098;2023-03-01T00:37:57;-3271.70;88.50
43808;DHT22;29438;50.664;10.098;2023-03-01T00:40:24;-3271.70;88.60
43808;DHT22;29438;50.664;10.098;2023-03-01T00:42:50;-3271.80;88.80
43808;DHT22;29438;50.664;10.098;2023-03-01T00:45:15;-3271.80;88.80
43808;DHT22;29438;50.664;10.098;2023-03-01T00:47:41;-3271.90;88.80
43808;DHT22;29438;50.664;10.098;2023-03-01T00:50:08;-3271.90;88.80
43808;DHT22;29438;50.664;10.098;2023-03-01T00:52:34;-3271.90;88.90
43808;DHT22;29438;50.664;10.098;2023-03-01T00:54:59;-3271.80;88.80
43808;DHT22;29438;50.664;10.098;2023-03-01T00:57:25;-3271.80;88.90
43808;DHT22;29438;50.664;10.098;2023-03-01T00:59:51;-3271.90;88.90
43808;DHT22;29438;50.664;10.098;2023-03-01T01:02:18;-3271.80;88.90
43808;DHT22;29438;50.664;10.098;2023-03-01T01:04:44;-3271.80;88.90
43808;DHT22;29438;50.664;10.098;2023-03-01T01:07:09;-3271.80;88.90
43808;DHT22;29438;50.664;10.098;2023-03-01T01:09:35;-3271.80;88.90
43808;DHT22;29438;50.664;10.098;2023-03-01T01:12:01;-3271.80;89.00
43808;DHT22;29438;50.664;10.098;2023-03-01T01:14:28;-3271.90;89.10
43808;DHT22;29438;50.664;10.098;2023-03-01T01:16:53;-3272.00;89.20
43808;DHT22;29438;50.664;10.098;2023-03-01T01:19:19;-3272.00;89.20
43808;DHT22;29438;50.664;10.098;2023-03-01T01:21:45;-3271.90;89.30
43808;DHT22;29438;50.664;10.098;2023-03-01T01:24:11;-3272.00;89.40
43808;DHT22;29438;50.664;10.098;2023-03-01T01:26:37;-3272.20;89.70
43808;DHT22;29438;50.664;10.098;2023-03-01T01:29:04;-3272.40;89.30
43808;DHT22;29438;50.664;10.098;2023-03-01T01:31:32;-3272.40;89.10
43808;DHT22;29438;50.664;10.098;2023-03-01T01:34:00;-3272.40;89.00
43808;DHT22;29438;50.664;10.098;2023-03-01T01:36:26;-3272.50;89.00
43808;DHT22;29438;50.664;10.098;2023-03-01T01:38:51;-3272.50;88.80
43808;DHT22;29438;50.664;10.098;2023-03-01T01:41:18;-3272.50;88.70
43808;DHT22;29438;50.664;10.098;2023-03-01T01:43:47;-3272.60;88.50
43808;DHT22;29438;50.664;10.098;2023-03-01T01:46:18;-3272.60;88.30
43808;DHT22;29438;50.664;10.098;2023-03-01T01:48:52;-3272.60;88.20
43808;DHT22;29438;50.664;10.098;2023-03-01T01:51:24;-3272.60;88.10
43808;DHT22;29438;50.664;10.098;2023-03-01T01:53:54;-3272.70;88.10
43808;DHT22;29438;50.664;10.098;2023-03-01T01:56:22;-3272.70;87.90
43808;DHT22;29438;50.664;10.098;2023-03-01T01:58:48;-3272.70;87.70
43808;DHT22;29438;50.664;10.098;2023-03-01T02:01:14;-3272.70;87.50
43808;DHT22;29438;50.664;10.098;2023-03-01T02:03:41;-3272.70;87.40
43808;DHT22;29438;50.664;10.098;2023-03-01T02:08:41;-3272.60;87.30
43808;DHT22;29438;50.664;10.098;2023-03-01T02:11:09;-3272.70;87.30
43808;DHT22;29438;50.664;10.098;2023-03-01T02:13:36;-3272.70;87.20
43808;DHT22;29438;50.664;10.098;2023-03-01T02:16:09;-3272.70;87.10
43808;DHT22;29438;50.664;10.098;2023-03-01T02:18:37;-3272.70;87.20
43808;DHT22;29438;50.664;10.098;2023-03-01T02:24:33;-3272.60;87.00
43808;DHT22;29438;50.664;10.098;2023-03-01T02:27:00;-3272.60;87.20
43808;DHT22;29438;50.664;10.098;2023-03-01T02:29:26;-3272.60;87.30
43808;DHT22;29438;50.664;10.098;2023-03-01T02:31:54;-3272.50;87.40
43808;DHT22;29438;50.664;10.098;2023-03-01T02:34:23;-3272.50;87.50
43808;DHT22;29438;50.664;10.098;2023-03-01T02:37:00;-3272.50;87.70
43808;DHT22;29438;50.664;10.098;2023-03-01T02:39:46;-3272.40;87.80
43808;DHT22;29438;50.664;10.098;2023-03-01T02:42:15;-3272.40;88.00
43808;DHT22;29438;50.664;10.098;2023-03-01T02:44:42;-3272.40;88.10
43808;DHT22;29438;50.664;10.098;2023-03-01T02:47:07;-3272.40;88.10
43808;DHT22;29438;50.664;10.098;2023-03-01T02:49:35;-3272.40;88.30
43808;DHT22;29438;50.664;10.098;2023-03-01T02:52:12;-3272.30;88.30
43808;DHT22;29438;50.664;10.098;2023-03-01T02:57:27;-3272.40;88.40
43808;DHT22;29438;50.664;10.098;2023-03-01T02:59:54;-3272.50;88.40
43808;DHT22;29438;50.664;10.098;2023-03-01T03:02:23;-3272.60;88.40
43808;DHT22;29438;50.664;10.098;2023-03-01T03:05:06;-3272.60;88.40
43808;DHT22;29438;50.664;10.098;2023-03-01T03:07:34;-3272.60;88.20
43808;DHT22;29438;50.664;10.098;2023-03-01T03:10:00;-3272.60;87.90
43808;DHT22;29438;50.664;10.098;2023-03-01T03:12:26;-3272.60;87.80
43808;DHT22;29438;50.664;10.098;2023-03-01T03:14:52;-3272.60;87.80
43808;DHT22;29438;50.664;10.098;2023-03-01T03:17:17;-3272.60;87.80
43808;DHT22;29438;50.664;10.098;2023-03-01T03:19:43;-3272.60;87.90
43808;DHT22;29438;50.664;10.098;2023-03-01T03:22:11;-3272.60;87.90
43808;DHT22;29438;50.664;10.098;2023-03-01T03:24:37;-3272.60;87.80
43808;DHT22;29438;50.664;10.098;2023-03-01T03:27:03;-3272.70;87.70
43808;DHT22;29438;50.664;10.098;2023-03-01T03:29:29;-3272.90;87.30
43808;DHT22;29438;50.664;10.098;2023-03-01T03:31:54;-3273.00;86.70
43808;DHT22;29438;50.664;10.098;2023-03-01T03:34:20;-3272.90;86.40
43808;DHT22;29438;50.664;10.098;2023-03-01T03:36:45;-3272.80;86.50
43808;DHT22;29438;50.664;10.098;2023-03-01T03:39:11;-3272.80;86.60
43808;DHT22;29438;50.664;10.098;2023-03-01T03:41:36;-3272.80;86.80
43808;DHT22;29438;50.664;10.098;2023-03-01T03:44:01;-3272.70;87.00
43808;DHT22;29438;50.664;10.098;2023-03-01T03:46:27;-3272.70;87.00
43808;DHT22;29438;50.664;10.098;2023-03-01T03:48:52;-3272.70;87.10
43808;DHT22;29438;50.664;10.098;2023-03-01T03:51:18;-3272.70;87.10
43808;DHT22;29438;50.664;10.098;2023-03-01T03:53:45;-3272.70;87.00
43808;DHT22;29438;50.664;10.098;2023-03-01T03:56:11;-3272.60;87.10
43808;DHT22;29438;50.664;10.098;2023-03-01T03:58:37;-3272.60;87.20
43808;DHT22;29438;50.664;10.098;2023-03-01T04:01:03;-3272.50;87.30
43808;DHT22;29438;50.664;10.098;2023-03-01T04:03:30;-3272.50;87.50
43808;DHT22;29438;50.664;10.098;2023-03-01T04:05:58;-3272.60;87.60
43808;DHT22;29438;50.664;10.098;2023-03-01T04:08:24;-3272.60;87.60
43808;DHT22;29438;50.664;10.098;2023-03-01T04:10:51;-3272.50;87.50
43808;DHT22;29438;50.664;10.098;2023-03-01T04:13:21;-3272.50;87.60
43808;DHT22;29438;50.664;10.098;2023-03-01T04:15:51;-3272.50;87.70
43808;DHT22;29438;50.664;10.098;2023-03-01T04:18:18;-3272.50;87.80
43808;DHT22;29438;50.664;10.098;2023-03-01T04:20:44;-3272.50;87.80
43808;DHT22;29438;50.664;10.098;2023-03-01T04:23:13;-3272.40;87.80
43808;DHT22;29438;50.664;10.098;2023-03-01T04:25:55;-3272.40;88.00
43808;DHT22;29438;50.664;10.098;2023-03-01T04:28:24;-3272.40;88.00
43808;DHT22;29438;50.664;10.098;2023-03-01T04:30:51;-3272.40;88.00
43808;DHT22;29438;50.664;10.098;2023-03-01T04:33:18;-3272.30;88.00
43808;DHT22;29438;50.664;10.098;2023-03-01T04:35:44;-3272.20;87.80
43808;DHT22;29438;50.664;10.098;2023-03-01T04:38:09;-3272.10;87.80
43808;DHT22;29438;50.664;10.098;2023-03-01T04:40:35;-3272.10;88.10
43808;DHT22;29438;50.664;10.098;2023-03-01T04:43:01;-3272.00;88.00
43808;DHT22;29438;50.664;10.098;2023-03-01T04:45:27;-3272.00;88.20
43808;DHT22;29438;50.664;10.098;2023-03-01T04:47:53;-3271.90;88.40
43808;DHT22;29438;50.664;10.098;2023-03-01T04:50:19;-3271.80;88.70
43808;DHT22;29438;50.664;10.098;2023-03-01T04:52:49;-3271.80;88.70
43808;DHT22;29438;50.664;10.098;2023-03-01T04:55:15;-3271.70;88.70
43808;DHT22;29438;50.664;10.098;2023-03-01T04:57:41;-3271.60;88.80
43808;DHT22;29438;50.664;10.098;2023-03-01T05:00:10;-3271.60;89.00
43808;DHT22;29438;50.664;10.098;2023-03-01T05:02:57;-3271.50;89.00
43808;DHT22;29438;50.664;10.098;2023-03-01T05:05:28;-3271.40;89.20
43808;DHT22;29438;50.664;10.098;2023-03-01T05:08:01;-3271.40;89.50
43808;DHT22;29438;50.664;10.098;2023-03-01T05:10:29;-3271.40;89.60
43808;DHT22;29438;50.664;10.098;2023-03-01T05:12:56;-3271.50;89.80
43808;DHT22;29438;50.664;10.098;2023-03-01T05:15:23;-3271.70;90.10
43808;DHT22;29438;50.664;10.098;2023-03-01T05:17:51;-3271.60;89.90
43808;DHT22;29438;50.664;10.098;2023-03-01T05:20:17;-3271.60;89.90
43808;DHT22;29438;50.664;10.098;2023-03-01T05:22:43;-3271.40;89.80
43808;DHT22;29438;50.664;10.098;2023-03-01T05:25:09;-3271.50;90.00
43808;DHT22;29438;50.664;10.098;2023-03-01T05:27:35;-3271.60;90.10
43808;DHT22;29438;50.664;10.098;2023-03-01T05:30:02;-3271.60;90.00
43808;DHT22;29438;50.664;10.098;2023-03-01T05:32:42;-3271.50;90.00
43808;DHT22;29438;50.664;10.098;2023-03-01T05:35:09;-3271.50;90.10
43808;DHT22;29438;50.664;10.098;2023-03-01T05:37:42;-3271.40;90.00
43808;DHT22;29438;50.664;10.098;2023-03-01T05:40:10;-3271.30;90.00
43808;DHT22;29438;50.664;10.098;2023-03-01T05:42:42;-3271.20;89.90
43808;DHT22;29438;50.664;10.098;2023-03-01T05:45:08;-3271.10;90.10
43808;DHT22;29438;50.664;10.098;2023-03-01T05:47:35;-3271.10;90.10
43808;DHT22;29438;50.664;10.098;2023-03-01T05:50:01;-3271.20;90.20
43808;DHT22;29438;50.664;10.098;2023-03-01T05:52:26;-3271.30;90.30
43808;DHT22;29438;50.664;10.098;2023-03-01T05:54:52;-3271.30;90.40
43808;DHT22;29438;50.664;10.098;2023-03-01T05:57:17;-3271.20;90.40
43808;DHT22;29438;50.664;10.098;2023-03-01T05:59:43;-3271.20;90.40
43808;DHT22;29438;50.664;10.098;2023-03-01T06:02:08;-3271.20;90.40
43808;DHT22;29438;50.664;10.098;2023-03-01T06:04:34;-3271.10;90.40
43808;DHT22;29438;50.664;10.098;2023-03-01T06:06:59;-3271.10;90.50
43808;DHT22;29438;50.664;10.098;2023-03-01T06:09:25;-3271.20;90.60
43808;DHT22;29438;50.664;10.098;2023-03-01T06:11:51;-3271.20;90.60
43808;DHT22;29438;50.664;10.098;2023-03-01T06:14:16;-3271.40;90.70
43808;DHT22;29438;50.664;10.098;2023-03-01T06:16:42;-3271.40;90.70
43808;DHT22;29438;50.664;10.098;2023-03-01T06:19:07;-3271.40;90.70
43808;DHT22;29438;50.664;10.098;2023-03-01T06:21:33;-3271.40;90.70
43808;DHT22;29438;50.664;10.098;2023-03-01T06:23:58;-3271.40;90.60
43808;DHT22;29438;50.664;10.098;2023-03-01T06:26:24;-3271.50;90.60
43808;DHT22;29438;50.664;10.098;2023-03-01T06:28:49;-3271.90;91.20
43808;DHT22;29438;50.664;10.098;2023-03-01T06:31:15;-3272.70;91.90
43808;DHT22;29438;50.664;10.098;2023-03-01T06:33:40;-3273.20;91.20
43808;DHT22;29438;50.664;10.098;2023-03-01T06:36:06;-3273.60;89.60
43808;DHT22;29438;50.664;10.098;2023-03-01T06:38:32;-3274.00;87.20
43808;DHT22;29438;50.664;10.098;2023-03-01T06:40:58;-3274.20;85.40
43808;DHT22;29438;50.664;10.098;2023-03-01T06:43:24;-3274.30;85.30
43808;DHT22;29438;50.664;10.098;2023-03-01T06:45:50;-3275.00;85.80
43808;DHT22;29438;50.664;10.098;2023-03-01T06:48:15;-3275.80;82.20
43808;DHT22;29438;50.664;10.098;2023-03-01T06:50:41;-3276.20;79.30
43808;DHT22;29438;50.664;10.098;2023-03-01T06:53:06;-3275.80;77.80
43808;DHT22;29438;50.664;10.098;2023-03-01T06:55:32;-3276.60;79.80
43808;DHT22;29438;50.664;10.098;2023-03-01T06:57:59;1.20;74.90
43808;DHT22;29438;50.664;10.098;2023-03-01T07:00:26;1.50;69.70
43808;DHT22;29438;50.664;10.098;2023-03-01T07:02:51;0.20;70.50
43808;DHT22;29438;50.664;10.098;2023-03-01T07:05:17;-3276.10;73.50
43808;DHT22;29438;50.664;10.098;2023-03-01T07:07:43;-3275.80;76.50
43808;DHT22;29438;50.664;10.098;2023-03-01T07:10:09;-3275.70;76.60
43808;DHT22;29438;50.664;10.098;2023-03-01T07:12:34;-3275.90;78.10
43808;DHT22;29438;50.664;10.098;2023-03-01T07:15:00;0.00;76.90
43808;DHT22;29438;50.664;10.098;2023-03-01T07:17:25;0.90;73.90
43808;DHT22;29438;50.664;10.098;2023-03-01T07:19:51;1.40;71.20
43808;DHT22;29438;50.664;10.098;2023-03-01T07:22:16;2.50;68.40
43808;DHT22;29438;50.664;10.098;2023-03-01T07:24:42;2.80;66.00
43808;DHT22;29438;50.664;10.098;2023-03-01T07:27:08;2.80;64.80
43808;DHT22;29438;50.664;10.098;2023-03-01T07:29:33;2.40;65.20
43808;DHT22;29438;50.664;10.098;2023-03-01T07:32:02;2.50;66.20
43808;DHT22;29438;50.664;10.098;2023-03-01T07:34:27;2.00;66.40
43808;DHT22;29438;50.664;10.098;2023-03-01T07:36:53;2.50;66.60
43808;DHT22;29438;50.664;10.098;2023-03-01T07:39:19;3.20;64.10
43808;DHT22;29438;50.664;10.098;2023-03-01T07:41:44;4.00;62.20
43808;DHT22;29438;50.664;10.098;2023-03-01T07:44:10;4.30;61.30
43808;DHT22;29438;50.664;10.098;2023-03-01T07:46:36;5.20;56.40
43808;DHT22;29438;50.664;10.098;2023-03-01T07:49:01;3.90;58.50
43808;DHT22;29438;50.664;10.098;2023-03-01T07:51:28;3.30;62.00
43808;DHT22;29438;50.664;10.098;2023-03-01T07:53:53;2.50;64.00
43808;DHT22;29438;50.664;10.098;2023-03-01T07:56:19;2.30;65.70
43808;DHT22;29438;50.664;10.098;2023-03-01T07:58:45;3.00;65.00
43808;DHT22;29438;50.664;10.098;2023-03-01T08:01:13;3.80;61.60
43808;DHT22;29438;50.664;10.098;2023-03-01T08:03:39;4.70;59.50
43808;DHT22;29438;50.664;10.098;2023-03-01T08:06:07;4.90;57.80
43808;DHT22;29438;50.664;10.098;2023-03-01T08:08:34;5.10;56.30
43808;DHT22;29438;50.664;10.098;2023-03-01T08:11:02;4.20;58.30
43808;DHT22;29438;50.664;10.098;2023-03-01T08:13:28;4.40;57.90
43808;DHT22;29438;50.664;10.098;2023-03-01T08:15:54;4.40;58.40
43808;DHT22;29438;50.664;10.098;2023-03-01T08:18:20;4.00;59.80
43808;DHT22;29438;50.664;10.098;2023-03-01T08:20:48;3.50;60.80
43808;DHT22;29438;50.664;10.098;2023-03-01T08:23:13;2.80;62.90
43808;DHT22;29438;50.664;10.098;2023-03-01T08:25:39;2.80;63.20
43808;DHT22;29438;50.664;10.098;2023-03-01T08:28:05;2.80;63.20
43808;DHT22;29438;50.664;10.098;2023-03-01T08:30:31;2.60;64.70
43808;DHT22;29438;50.664;10.098;2023-03-01T08:32:57;2.30;65.80
43808;DHT22;29438;50.664;10.098;2023-03-01T08:35:22;2.60;65.60
43808;DHT22;29438;50.664;10.098;2023-03-01T08:37:48;2.30;64.40
43808;DHT22;29438;50.664;10.098;2023-03-01T08:40:13;2.00;66.70
43808;DHT22;29438;50.664;10.098;2023-03-01T08:42:40;2.00;66.50
43808;DHT22;29438;50.664;10.098;2023-03-01T08:45:08;2.10;66.60
43808;DHT22;29438;50.664;10.098;2023-03-01T08:47:34;2.50;66.70
43808;DHT22;29438;50.664;10.098;2023-03-01T08:50:00;2.40;65.70
43808;DHT22;29438;50.664;10.098;2023-03-01T08:52:26;3.10;67.10
43808;DHT22;29438;50.664;10.098;2023-03-01T08:54:51;3.00;64.10
43808;DHT22;29438;50.664;10.098;2023-03-01T08:57:17;3.00;66.10
43808;DHT22;29438;50.664;10.098;2023-03-01T08:59:43;3.00;63.80
43808;DHT22;29438;50.664;10.098;2023-03-01T09:02:13;3.40;63.60
43808;DHT22;29438;50.664;10.098;2023-03-01T09:04:39;3.90;64.60
43808;DHT22;29438;50.664;10.098;2023-03-01T09:07:05;5.00;59.90
43808;DHT22;29438;50.664;10.098;2023-03-01T09:09:31;5.20;57.60
43808;DHT22;29438;50.664;10.098;2023-03-01T09:11:57;5.00;58.70
43808;DHT22;29438;50.664;10.098;2023-03-01T09:14:22;3.90;59.80
43808;DHT22;29438;50.664;10.098;2023-03-01T09:16:48;3.40;63.80
43808;DHT22;29438;50.664;10.098;2023-03-01T09:19:13;3.40;64.10
43808;DHT22;29438;50.664;10.098;2023-03-01T09:21:39;3.80;62.20
43808;DHT22;29438;50.664;10.098;2023-03-01T09:24:06;3.70;62.10
43808;DHT22;29438;50.664;10.098;2023-03-01T09:26:31;4.00;61.10
43808;DHT22;29438;50.664;10.098;2023-03-01T09:28:57;3.80;60.50
43808;DHT22;29438;50.664;10.098;2023-03-01T09:31:23;4.20;61.40
43808;DHT22;29438;50.664;10.098;2023-03-01T09:33:52;4.00;60.90
43808;DHT22;29438;50.664;10.098;2023-03-01T09:36:20;4.30;60.80
43808;DHT22;29438;50.664;10.098;2023-03-01T09:38:47;4.60;58.20
43808;DHT22;29438;50.664;10.098;2023-03-01T09:41:38;4.70;56.60
43808;DHT22;29438;50.664;10.098;2023-03-01T09:46:44;4.50;56.60
43808;DHT22;29438;50.664;10.098;2023-03-01T09:49:28;5.10;55.80
43808;DHT22;29438;50.664;10.098;2023-03-01T09:54:47;5.00;55.00
43808;DHT22;29438;50.664;10.098;2023-03-01T09:57:20;4.40;56.70
43808;DHT22;29438;50.664;10.098;2023-03-01T10:02:57;5.00;57.00
43808;DHT22;29438;50.664;10.098;2023-03-01T10:08:36;3.80;60.40
43808;DHT22;29438;50.664;10.098;2023-03-01T10:11:27;3.80;60.60
43808;DHT22;29438;50.664;10.098;2023-03-01T10:14:30;4.00;60.30
43808;DHT22;29438;50.664;10.098;2023-03-01T10:17:26;3.80;60.00
43808;DHT22;29438;50.664;10.098;2023-03-01T10:19:53;3.80;59.80
43808;DHT22;29438;50.664;10.098;2023-03-01T10:22:27;3.70;59.60
43808;DHT22;29438;50.664;10.098;2023-03-01T10:24:59;4.00;62.10
43808;DHT22;29438;50.664;10.098;2023-03-01T10:27:35;4.30;62.70
43808;DHT22;29438;50.664;10.098;2023-03-01T10:32:49;4.90;56.10
43808;DHT22;29438;50.664;10.098;2023-03-01T10:35:22;5.00;57.60
43808;DHT22;29438;50.664;10.098;2023-03-01T10:38:06;4.90;57.60
43808;DHT22;29438;50.664;10.098;2023-03-01T10:40:33;4.70;56.70
43808;DHT22;29438;50.664;10.098;2023-03-01T10:43:01;4.50;57.30
43808;DHT22;29438;50.664;10.098;2023-03-01T10:45:34;4.80;58.40
43808;DHT22;29438;50.664;10.098;2023-03-01T10:50:50;4.80;53.60
43808;DHT22;29438;50.664;10.098;2023-03-01T10:53:34;4.60;55.00
43808;DHT22;29438;50.664;10.098;2023-03-01T10:56:12;4.50;57.00
43808;DHT22;29438;50.664;10.098;2023-03-01T10:59:00;4.40;54.20
43808;DHT22;29438;50.664;10.098;2023-03-01T11:01:28;4.60;55.90
43808;DHT22;29438;50.664;10.098;2023-03-01T11:06:33;4.50;56.70
43808;DHT22;29438;50.664;10.098;2023-03-01T11:09:23;4.40;54.30
43808;DHT22;29438;50.664;10.098;2023-03-01T11:11:56;4.50;56.80
43808;DHT22;29438;50.664;10.098;2023-03-01T11:14:24;4.60;58.20
43808;DHT22;29438;50.664;10.098;2023-03-01T11:17:29;4.60;55.50
43808;DHT22;29438;50.664;10.098;2023-03-01T11:20:25;4.40;56.20
43808;DHT22;29438;50.664;10.098;2023-03-01T11:23:13;4.30;56.80
43808;DHT22;29438;50.664;10.098;2023-03-01T11:25:49;4.50;57.70
43808;DHT22;29438;50.664;10.098;2023-03-01T11:28:17;4.60;54.50
43808;DHT22;29438;50.664;10.098;2023-03-01T11:31:06;4.50;55.00
43808;DHT22;29438;50.664;10.098;2023-03-01T11:39:05;4.40;56.10
43808;DHT22;29438;50.664;10.098;2023-03-01T11:41:39;4.70;58.80
43808;DHT22;29438;50.664;10.098;2023-03-01T11:44:25;4.30;56.70
43808;DHT22;29438;50.664;10.098;2023-03-01T11:47:29;4.30;58.80
43808;DHT22;29438;50.664;10.098;2023-03-01T11:55:49;4.30;56.90
43808;DHT22;29438;50.664;10.098;2023-03-01T11:58:38;4.30;57.60
43808;DHT22;29438;50.664;10.098;2023-03-01T12:01:30;4.50;58.60
43808;DHT22;29438;50.664;10.098;2023-03-01T12:07:01;4.20;59.00
43808;DHT22;29438;50.664;10.098;2023-03-01T12:12:27;4.60;58.80
43808;DHT22;29438;50.664;10.098;2023-03-01T12:15:22;4.40;58.20
43808;DHT22;29438;50.664;10.098;2023-03-01T12:18:14;4.50;58.60
43808;DHT22;29438;50.664;10.098;2023-03-01T12:21:07;4.50;58.40
43808;DHT22;29438;50.664;10.098;2023-03-01T12:26:30;4.50;57.60
43808;DHT22;29438;50.664;10.098;2023-03-01T12:29:24;4.30;59.30
43808;DHT22;29438;50.664;10.098;2023-03-01T12:32:10;4.50;57.50
43808;DHT22;29438;50.664;10.098;2023-03-01T12:37:35;4.30;58.00
43808;DHT22;29438;50.664;10.098;2023-03-01T12:46:04;4.30;57.50
43808;DHT22;29438;50.664;10.098;2023-03-01T12:48:56;4.50;58.60
43808;DHT22;29438;50.664;10.098;2023-03-01T12:51:26;4.70;59.00
43808;DHT22;29438;50.664;10.098;2023-03-01T12:53:55;4.70;58.40
43808;DHT22;29438;50.664;10.098;2023-03-01T12:56:29;4.70;57.40
43808;DHT22;29438;50.664;10.098;2023-03-01T13:01:45;4.30;57.10
43808;DHT22;29438;50.664;10.098;2023-03-01T13:04:35;4.40;60.10
43808;DHT22;29438;50.664;10.098;2023-03-01T13:07:04;4.20;59.70
43808;DHT22;29438;50.664;10.098;2023-03-01T13:09:55;3.90;59.80
43808;DHT22;29438;50.664;10.098;2023-03-01T13:12:52;3.70;61.60
43808;DHT22;29438;50.664;10.098;2023-03-01T13:15:29;3.80;62.20
43808;DHT22;29438;50.664;10.098;2023-03-01T13:18:27;3.80;61.80
43808;DHT22;29438;50.664;10.098;2023-03-01T13:20:49;3.50;61.00
43808;DHT22;29438;50.664;10.098;2023-03-01T13:34:01;3.70;61.20
43808;DHT22;29438;50.664;10.098;2023-03-01T13:39:29;3.80;62.60
43808;DHT22;29438;50.664;10.098;2023-03-01T13:41:57;3.70;62.10
43808;DHT22;29438;50.664;10.098;2023-03-01T13:44:30;3.60;62.80
43808;DHT22;29438;50.664;10.098;2023-03-01T13:50:01;3.60;63.30
43808;DHT22;29438;50.664;10.098;2023-03-01T13:53:10;3.50;63.30
43808;DHT22;29438;50.664;10.098;2023-03-01T13:55:42;3.70;63.50
43808;DHT22;29438;50.664;10.098;2023-03-01T13:58:21;3.80;62.10
43808;DHT22;29438;50.664;10.098;2023-03-01T14:00:47;3.80;62.30
43808;DHT22;29438;50.664;10.098;2023-03-01T14:03:18;3.70;61.90
43808;DHT22;29438;50.664;10.098;2023-03-01T14:08:28;3.90;62.10
43808;DHT22;29438;50.664;10.098;2023-03-01T14:10:59;3.80;62.90
43808;DHT22;29438;50.664;10.098;2023-03-01T14:19:32;3.70;62.60
43808;DHT22;29438;50.664;10.098;2023-03-01T14:24:59;3.80;58.70
43808;DHT22;29438;50.664;10.098;2023-03-01T14:27:33;3.80;60.50
43808;DHT22;29438;50.664;10.098;2023-03-01T14:30:03;3.90;57.90
43808;DHT22;29438;50.664;10.098;2023-03-01T14:32:35;3.70;56.70
43808;DHT22;29438;50.664;10.098;2023-03-01T14:35:01;3.80;57.50
43808;DHT22;29438;50.664;10.098;2023-03-01T14:37:28;3.70;58.00
43808;DHT22;29438;50.664;10.098;2023-03-01T14:39:56;3.90;59.30
43808;DHT22;29438;50.664;10.098;2023-03-01T14:42:23;3.90;57.00
43808;DHT22;29438;50.664;10.098;2023-03-01T14:44:52;3.90;57.50
43808;DHT22;29438;50.664;10.098;2023-03-01T14:47:28;3.80;58.30
43808;DHT22;29438;50.664;10.098;2023-03-01T14:52:44;4.00;58.70
43808;DHT22;29438;50.664;10.098;2023-03-01T14:55:19;3.80;58.10
43808;DHT22;29438;50.664;10.098;2023-03-01T14:57:48;3.60;59.10
43808;DHT22;29438;50.664;10.098;2023-03-01T15:00:29;3.50;60.40
43808;DHT22;29438;50.664;10.098;2023-03-01T15:02:57;3.50;60.30
43808;DHT22;29438;50.664;10.098;2023-03-01T15:05:31;3.30;60.10
43808;DHT22;29438;50.664;10.098;2023-03-01T15:07:58;3.40;59.60
43808;DHT22;29438;50.664;10.098;2023-03-01T15:10:31;3.40;60.10
43808;DHT22;29438;50.664;10.098;2023-03-01T15:13:19;3.40;60.50
43808;DHT22;29438;50.664;10.098;2023-03-01T15:15:47;3.40;59.30
43808;DHT22;29438;50.664;10.098;2023-03-01T15:18:19;3.30;59.10
43808;DHT22;29438;50.664;10.098;2023-03-01T15:20:47;3.30;58.90
43808;DHT22;29438;50.664;10.098;2023-03-01T15:23:20;3.30;57.80
43808;DHT22;29438;50.664;10.098;2023-03-01T15:25:47;3.30;59.00
43808;DHT22;29438;50.664;10.098;2023-03-01T15:28:27;3.20;59.10
43808;DHT22;29438;50.664;10.098;2023-03-01T15:31:00;3.20;59.20
43808;DHT22;29438;50.664;10.098;2023-03-01T15:33:32;3.30;60.20
43808;DHT22;29438;50.664;10.098;2023-03-01T15:36:02;3.20;60.00
43808;DHT22;29438;50.664;10.098;2023-03-01T15:38:55;3.20;60.10
43808;DHT22;29438;50.664;10.098;2023-03-01T15:41:36;3.20;59.80
43808;DHT22;29438;50.664;10.098;2023-03-01T15:44:23;3.10;59.80
43808;DHT22;29438;50.664;10.098;2023-03-01T15:46:50;3.10;59.60
43808;DHT22;29438;50.664;10.098;2023-03-01T15:51:56;3.00;59.90
43808;DHT22;29438;50.664;10.098;2023-03-01T15:54:25;2.90;61.00
43808;DHT22;29438;50.664;10.098;2023-03-01T15:56:50;2.90;60.80
43808;DHT22;29438;50.664;10.098;2023-03-01T15:59:17;2.80;61.10
43808;DHT22;29438;50.664;10.098;2023-03-01T16:01:43;2.80;60.80
43808;DHT22;29438;50.664;10.098;2023-03-01T16:04:10;2.80;60.20
43808;DHT22;29438;50.664;10.098;2023-03-01T16:06:38;2.70;60.60
43808;DHT22;29438;50.664;10.098;2023-03-01T16:09:04;2.70;61.00
43808;DHT22;29438;50.664;10.098;2023-03-01T16:11:30;2.60;61.30
43808;DHT22;29438;50.664;10.098;2023-03-01T16:13:57;2.50;61.10
43808;DHT22;29438;50.664;10.098;2023-03-01T16:16:23;2.50;61.50
43808;DHT22;29438;50.664;10.098;2023-03-01T16:18:48;2.40;63.70
43808;DHT22;29438;50.664;10.098;2023-03-01T16:21:19;2.20;66.10
43808;DHT22;29438;50.664;10.098;2023-03-01T16:23:45;2.00;66.80
43808;DHT22;29438;50.664;10.098;2023-03-01T16:26:11;2.00;66.90
43808;DHT22;29438;50.664;10.098;2023-03-01T16:28:38;2.00;67.20
43808;DHT22;29438;50.664;10.098;2023-03-01T16:31:04;1.90;67.60
43808;DHT22;29438;50.664;10.098;2023-03-01T16:33:30;1.80;67.70
43808;DHT22;29438;50.664;10.098;2023-03-01T16:35:56;1.70;67.30
43808;DHT22;29438;50.664;10.098;2023-03-01T16:38:22;1.70;67.50
43808;DHT22;29438;50.664;10.098;2023-03-01T16:40:49;1.70;67.20
43808;DHT22;29438;50.664;10.098;2023-03-01T16:43:15;1.70;66.60
43808;DHT22;29438;50.664;10.098;2023-03-01T16:45:40;1.60;68.20
43808;DHT22;29438;50.664;10.098;2023-03-01T16:48:10;1.50;68.60
43808;DHT22;29438;50.664;10.098;2023-03-01T16:50:36;1.40;69.60
43808;DHT22;29438;50.664;10.098;2023-03-01T16:53:02;1.40;69.80
43808;DHT22;29438;50.664;10.098;2023-03-01T16:55:28;1.40;69.00